Mid Delta Regional Airport
KGLH : now visible

Airfield :











YOU CAN JOIN US ON...

 
LOGIN :

Register | Disclaimer

   EN    FR    IT 

 









Legend :    VFR   Marginal VFR   IFR   Intensive IFR   Very Intensive IFR
Visi :
Ceiling :
>= 8 km
>= 3000ft
5 to 8 km
1000 to 3000 ft
1500m to 5 km
500 to 1000 ft
800 to 1500m
200 to 500 ft
< 800m
< 200 ft
Symbols :   Thunderstorms  Fog  Heavy snow  Heavy precipitations  Wind > 20 kt






- Airport Elevation : 131 ft
- IATA code : GLH


KGLH - Mid Delta Regional

CURRENT METAR :
  • 290653Z AUTO 15007KT 10SM CLR 11/08 A2991 RMK AO2 SLP134 T01110078

EXPIRED METARs :
  • 290553Z AUTO 15007KT 10SM CLR 12/08 A2992 RMK AO2 SLP139 T01170078 10128 20094 401890044 58011
  • 290453Z AUTO 14006KT 10SM CLR 11/07 A2994 RMK AO2 SLP144 T01060072

TAF KGLH
Valid from the 29 at 06:00 until the 30 at 06:00 UTC


290520Z 2906/3006 14005KT P6SM FEW250
FM291300 16007KT P6SM SCT007 BKN025
FM291700 17012G21KT P6SM SHRA VCTS BKN007CB
FM292000 18015G26KT P6SM SHRA VCTS OVC011CB
FM300000 21017G30KT 4SM TSRA BR BKN030CB OVC100
FM300300 22010KT 6SM -RA BR OVC007
KZME FIR / North America



MET'MAP, your aeronautical weather chart ! - Copyright ORBIFLY December 2007 - Disclaimer

ORBIFLY MET'MAP TEAM :

Programming & Development : Alexandra Zaïnal
Original concept : Baudouin d'Aumeries
Technical & hardware support : Manuel Goepfert
Assistance : Marc-Olivier Méhu




SOURCES & CREDITS :

   NOAA       Earth
Advisory